Huvudsida
METAR-TAF:

METAR-TAF

Flygplatser :

Abha, Saudiarabien

latitud: 18-14N, longitud: 042-39E, höjd: 2090 m

Aktuellt väderrapport

Denna rapport gjordes för 21 minuter sedan, klockan 21:00 UTC
Vind 3 kt från sydväst
Temperatur 21°C
Fuktighet 83%
Tryck 1024 hPa
Sikt 10 km eller mer
Inga moln under 1 500 m eller inga cumulonimbus

METAR: OEAB 182100Z 22003KT CAVOK 21/18 Q1024 NOSIG

Tid: 00:21 (21:21 UTC)

Väderprognos

Denna rapport gjordes för 10 timmar och 21 minuter sedan, klockan 11:00 UTC
Prognos gäller från 18 kl. 12 UTC till 19 kl. 18 UTC
Vind 14 kt från väst
Sikt 10 km eller mer
Få moln på en höjd av 2000 ft
Temporärt
från 18 kl. 12 UTC till 18 kl. 18 UTC
Sikt: 6000 m
Spridda moln på en höjd av 2000 ft
Få moln på en höjd av 2500 ft, Cumulonimbus.
åska, regn
Blir
från 18 kl. 20 UTC till 18 kl. 22 UTC
Vind 3 kt varierande vindriktning

TAF: OEAB 181100Z 1812/1918 27014KT 9999 FEW020 TEMPO 1812/1818 6000 TSRA SCT020 FEW025CB BECMG 1820/1822 VRB03KT

Aktuella väderrapporter och prognoser från 4000 flygplatser (METAR- och TAF-rapporter).

De tillgängliga stationerna syns som gula och röda prickar på kartan.

För musen över prickarna för att se namnen på stationerna.

Klicka sedan för att få väderrapporter och prognoser.

För att ändra kartan: Klicka på de gröna knapparna med ett svart kors på för att zooma in; den gröna knappen med ett streck på för att zooma ut; eller på de gröna pilarna för angränsande kartor.


METAR-TAF: